createdAt,value
2022-09-15T00:00:20.240Z,99.60
2022-09-15T00:01:20.356Z,99.60
2022-09-15T00:02:20.438Z,99.80
2022-09-15T00:03:20.292Z,99.60
2022-09-15T00:04:20.188Z,99.70
2022-09-15T00:05:20.199Z,99.70
2022-09-15T00:06:20.147Z,99.80
2022-09-15T00:07:20.136Z,99.91
2022-09-15T00:08:20.139Z,99.91
2022-09-15T00:09:20.114Z,99.91
2022-09-15T00:10:20.106Z,99.99
2022-09-15T00:11:20.119Z,99.99
2022-09-15T00:12:20.082Z,99.99
2022-09-15T00:13:20.062Z,99.99
2022-09-15T00:14:20.069Z,99.99
2022-09-15T00:15:20.035Z,99.99
2022-09-15T00:16:20.099Z,99.99
2022-09-15T00:17:20.047Z,99.99
2022-09-15T00:18:20.019Z,99.99
2022-09-15T00:19:20.008Z,99.99
2022-09-15T00:20:19.993Z,99.91
2022-09-15T00:21:19.975Z,99.80
2022-09-15T00:22:19.945Z,99.70
2022-09-15T00:23:19.954Z,99.70
2022-09-15T00:24:19.916Z,99.70
2022-09-15T00:25:19.928Z,99.60
2022-09-15T00:26:19.906Z,99.60
2022-09-15T00:27:19.884Z,99.65
2022-09-15T00:28:19.871Z,99.65
2022-09-15T00:29:19.905Z,99.65
2022-09-15T00:30:19.874Z,99.65
2022-09-15T00:31:19.899Z,99.75
2022-09-15T00:32:19.827Z,99.75
2022-09-15T00:33:19.825Z,99.75
2022-09-15T00:34:19.801Z,99.85
2022-09-15T00:35:19.828Z,99.85
2022-09-15T00:36:19.765Z,99.85
2022-09-15T00:37:19.767Z,99.85
2022-09-15T00:38:19.755Z,99.85
2022-09-15T00:39:19.756Z,99.85
2022-09-15T00:40:19.800Z,99.85
2022-09-15T00:41:19.746Z,99.85
2022-09-15T00:42:19.683Z,99.95
2022-09-15T00:43:19.673Z,99.85
2022-09-15T00:44:19.668Z,99.90
2022-09-15T00:45:19.666Z,99.90
2022-09-15T00:46:19.696Z,99.99
2022-09-15T00:47:20.148Z,99.99
2022-09-15T00:48:19.635Z,99.99
2022-09-15T00:49:19.614Z,99.99
2022-09-15T00:50:19.596Z,99.99
2022-09-15T00:51:19.588Z,99.99
2022-09-15T00:52:19.561Z,99.99
2022-09-15T00:53:19.595Z,99.99
2022-09-15T00:54:19.544Z,99.99
2022-09-15T00:55:19.522Z,99.99
2022-09-15T00:56:19.525Z,99.99
2022-09-15T00:57:19.501Z,99.99
2022-09-15T00:58:19.495Z,99.99
2022-09-15T00:59:19.505Z,99.99
2022-09-15T01:00:19.489Z,99.99
2022-09-15T01:01:19.543Z,99.99
2022-09-15T01:02:19.502Z,99.99
2022-09-15T01:03:19.421Z,99.99
2022-09-15T01:04:19.421Z,99.99
2022-09-15T01:05:19.436Z,99.99
2022-09-15T01:06:19.387Z,99.99
2022-09-15T01:07:19.402Z,99.99
2022-09-15T01:08:19.375Z,99.99
2022-09-15T01:09:19.350Z,99.99
2022-09-15T01:10:19.331Z,99.99
2022-09-15T01:11:19.350Z,99.99
2022-09-15T01:12:19.331Z,99.99
2022-09-15T01:13:19.292Z,99.99
2022-09-15T01:14:19.282Z,99.99
2022-09-15T01:15:19.283Z,99.99
2022-09-15T01:16:19.295Z,99.99
2022-09-15T01:17:19.281Z,99.99
2022-09-15T01:18:19.244Z,99.99
2022-09-15T01:19:19.227Z,99.99
2022-09-15T01:20:19.213Z,99.99
2022-09-15T01:21:19.201Z,99.99
2022-09-15T01:22:19.192Z,99.99
2022-09-15T01:23:19.203Z,99.99
2022-09-15T01:24:19.171Z,99.99
2022-09-15T01:25:19.162Z,99.99
2022-09-15T01:26:19.142Z,99.99
2022-09-15T01:27:41.167Z,99.99
2022-09-15T01:28:20.142Z,99.99
2022-09-15T01:29:21.257Z,99.99
2022-09-15T01:30:19.095Z,99.99
2022-09-15T01:31:19.138Z,99.99
2022-09-15T01:32:19.068Z,99.99
2022-09-15T01:33:19.037Z,99.99
2022-09-15T01:34:19.063Z,99.99
2022-09-15T01:35:19.017Z,99.99
2022-09-15T01:36:19.031Z,99.99
2022-09-15T01:37:18.996Z,99.99
2022-09-15T01:38:18.988Z,99.99
2022-09-15T01:39:18.980Z,99.99
2022-09-15T01:40:19.027Z,99.99
2022-09-15T01:41:18.951Z,99.99
2022-09-15T01:42:18.950Z,99.99
2022-09-15T01:43:18.929Z,99.99
2022-09-15T01:44:18.913Z,99.99
2022-09-15T01:45:18.911Z,99.99
2022-09-15T01:46:18.965Z,99.99
2022-09-15T01:47:18.880Z,99.99
2022-09-15T01:48:18.859Z,99.99
2022-09-15T01:49:18.851Z,99.99
2022-09-15T01:50:18.838Z,99.99
2022-09-15T01:51:18.806Z,99.99
2022-09-15T01:52:18.824Z,99.99
2022-09-15T01:53:18.787Z,99.99
2022-09-15T01:54:18.774Z,99.99
2022-09-15T01:55:18.767Z,99.99
2022-09-15T01:56:18.789Z,99.99
2022-09-15T01:57:18.735Z,99.99
2022-09-15T01:58:18.749Z,99.99
2022-09-15T01:59:18.710Z,99.99
2022-09-15T02:00:18.719Z,99.99
2022-09-15T02:01:18.722Z,99.99
2022-09-15T02:02:18.723Z,99.99
2022-09-15T02:03:18.677Z,99.99
2022-09-15T02:04:18.666Z,99.99
2022-09-15T02:05:18.734Z,99.99
2022-09-15T02:06:18.638Z,99.99
2022-09-15T02:07:18.614Z,99.99
2022-09-15T02:08:18.585Z,99.99
2022-09-15T02:09:18.607Z,99.99
2022-09-15T02:10:18.587Z,99.99
2022-09-15T02:11:18.561Z,99.99
2022-09-15T02:12:18.559Z,99.99
2022-09-15T02:13:18.548Z,99.99
2022-09-15T02:14:18.541Z,99.99
2022-09-15T02:15:18.505Z,99.99
2022-09-15T02:16:18.585Z,99.99
2022-09-15T02:17:18.474Z,99.99
2022-09-15T02:18:18.478Z,99.99
2022-09-15T02:19:18.633Z,99.99
2022-09-15T02:20:18.448Z,99.99
2022-09-15T02:21:18.427Z,99.99
2022-09-15T02:22:18.436Z,99.99
2022-09-15T02:23:18.417Z,99.99
2022-09-15T02:24:18.403Z,99.99
2022-09-15T02:25:18.387Z,99.99
2022-09-15T02:26:18.361Z,99.99
2022-09-15T02:27:18.374Z,99.99
2022-09-15T02:28:18.354Z,99.99
2022-09-15T02:29:18.336Z,99.99
2022-09-15T02:30:18.330Z,99.99
2022-09-15T02:31:18.379Z,99.99
2022-09-15T02:32:18.295Z,99.99
2022-09-15T02:33:18.295Z,99.99
2022-09-15T02:34:18.282Z,99.99
2022-09-15T02:35:18.266Z,99.99
2022-09-15T02:36:18.231Z,99.99
2022-09-15T02:37:18.236Z,99.99
2022-09-15T02:38:18.214Z,99.99
2022-09-15T02:39:18.204Z,99.99
2022-09-15T02:40:18.414Z,99.99
2022-09-15T02:41:18.213Z,99.99
2022-09-15T02:42:18.161Z,99.99
2022-09-15T02:43:18.152Z,99.99
2022-09-15T02:44:18.155Z,99.99
2022-09-15T02:45:18.136Z,99.99
2022-09-15T02:46:18.130Z,99.99
2022-09-15T02:47:18.091Z,99.99
2022-09-15T02:48:18.094Z,99.99
2022-09-15T02:49:18.062Z,99.99
2022-09-15T02:50:18.071Z,99.89
2022-09-15T02:51:18.040Z,99.94
2022-09-15T02:52:18.040Z,99.94
2022-09-15T02:53:18.023Z,99.99
2022-09-15T02:54:17.999Z,99.99
2022-09-15T02:55:18.000Z,99.99
2022-09-15T02:56:17.972Z,99.99
2022-09-15T02:57:17.961Z,99.99
2022-09-15T02:58:17.969Z,99.99
2022-09-15T02:59:17.949Z,99.99
2022-09-15T03:00:17.933Z,99.99
2022-09-15T03:01:17.978Z,99.99
2022-09-15T03:02:17.958Z,99.99
2022-09-15T03:03:17.905Z,99.99
2022-09-15T03:04:17.901Z,99.99
2022-09-15T03:05:17.869Z,99.99
2022-09-15T03:06:17.894Z,99.99
2022-09-15T03:07:17.852Z,99.99
2022-09-15T03:08:17.829Z,99.99
2022-09-15T03:09:17.811Z,99.99
2022-09-15T03:10:18.823Z,99.99
2022-09-15T03:11:17.821Z,99.99
2022-09-15T03:12:17.793Z,99.99
2022-09-15T03:13:17.772Z,99.99
2022-09-15T03:14:17.749Z,99.99
2022-09-15T03:15:17.758Z,99.99
2022-09-15T03:16:17.785Z,99.99
2022-09-15T03:17:17.798Z,99.99
2022-09-15T03:18:17.688Z,99.99
2022-09-15T03:19:17.678Z,99.99
2022-09-15T03:20:17.678Z,99.99
2022-09-15T03:21:17.647Z,99.99
2022-09-15T03:22:17.654Z,99.99
2022-09-15T03:23:17.638Z,99.99
2022-09-15T03:24:17.620Z,99.99
2022-09-15T03:25:17.621Z,99.99
2022-09-15T03:26:17.590Z,99.99
2022-09-15T03:27:17.580Z,99.99
2022-09-15T03:28:17.579Z,99.99
2022-09-15T03:29:17.561Z,99.99
2022-09-15T03:30:17.528Z,99.99
2022-09-15T03:31:17.572Z,99.99
2022-09-15T03:32:17.508Z,99.99
2022-09-15T03:33:17.496Z,99.99
2022-09-15T03:34:17.509Z,99.99
2022-09-15T03:35:17.467Z,99.99
2022-09-15T03:36:17.467Z,99.99
2022-09-15T03:37:17.444Z,99.99
2022-09-15T03:38:17.440Z,99.99
2022-09-15T03:39:17.424Z,99.99
2022-09-15T03:40:17.505Z,99.99
2022-09-15T03:41:17.395Z,99.99
2022-09-15T03:42:17.389Z,99.99
2022-09-15T03:43:18.827Z,99.99
2022-09-15T03:44:17.355Z,99.99
2022-09-15T03:45:17.345Z,99.99
2022-09-15T03:46:17.387Z,99.99
2022-09-15T03:47:17.327Z,99.99
2022-09-15T03:48:17.295Z,99.99
2022-09-15T03:49:17.296Z,99.99
2022-09-15T03:50:17.287Z,99.99
2022-09-15T03:51:17.286Z,99.99
2022-09-15T03:52:17.290Z,99.99
2022-09-15T03:53:17.252Z,99.99
2022-09-15T03:54:17.235Z,99.93
2022-09-15T03:55:17.227Z,99.99
2022-09-15T03:56:17.206Z,99.99
2022-09-15T03:57:17.184Z,99.99
2022-09-15T03:58:17.196Z,99.99
2022-09-15T03:59:17.178Z,99.99
2022-09-15T04:00:17.169Z,99.99
2022-09-15T04:01:17.279Z,99.99
2022-09-15T04:02:17.176Z,99.99
2022-09-15T04:03:17.123Z,99.99
2022-09-15T04:04:17.098Z,99.99
2022-09-15T04:05:17.077Z,99.99
2022-09-15T04:06:17.078Z,99.99
2022-09-15T04:07:17.075Z,99.99
2022-09-15T04:08:17.053Z,99.99
2022-09-15T04:09:17.068Z,99.99
2022-09-15T04:10:17.011Z,99.99
2022-09-15T04:11:17.025Z,99.99
2022-09-15T04:12:17.008Z,99.99
2022-09-15T04:13:16.972Z,99.99
2022-09-15T04:14:16.963Z,99.99
2022-09-15T04:15:17.037Z,99.99
2022-09-15T04:16:17.017Z,99.99
2022-09-15T04:17:16.945Z,99.99
2022-09-15T04:18:16.904Z,99.99
2022-09-15T04:19:16.923Z,99.99
2022-09-15T04:20:16.897Z,99.99
2022-09-15T04:21:16.903Z,99.99
2022-09-15T04:22:17.942Z,99.99
2022-09-15T04:23:16.863Z,99.99
2022-09-15T04:24:16.831Z,99.99
2022-09-15T04:25:16.822Z,99.99
2022-09-15T04:26:16.824Z,99.99
2022-09-15T04:27:16.838Z,99.99
2022-09-15T04:28:16.772Z,99.99
2022-09-15T04:29:16.792Z,99.99
2022-09-15T04:30:16.760Z,99.99
2022-09-15T04:31:16.780Z,99.99
2022-09-15T04:32:16.745Z,99.99
2022-09-15T04:33:16.728Z,99.99
2022-09-15T04:34:16.736Z,99.99
2022-09-15T04:35:24.514Z,99.99
2022-09-15T04:36:16.693Z,99.99
2022-09-15T04:37:18.421Z,99.99
2022-09-15T04:38:19.358Z,99.99
2022-09-15T04:39:16.665Z,99.99
2022-09-15T04:40:16.731Z,99.99
2022-09-15T04:41:16.644Z,99.99
2022-09-15T04:42:16.614Z,99.99
2022-09-15T04:43:16.589Z,99.99
2022-09-15T04:44:16.587Z,99.99
2022-09-15T04:45:16.591Z,99.99
2022-09-15T04:46:16.638Z,99.99
2022-09-15T04:47:16.555Z,99.99
2022-09-15T04:48:16.549Z,99.99
2022-09-15T04:49:16.522Z,99.99
2022-09-15T04:50:16.502Z,99.99
2022-09-15T04:51:16.499Z,99.99
2022-09-15T04:52:16.494Z,99.99
2022-09-15T04:53:16.464Z,99.99
2022-09-15T04:54:16.470Z,99.99
2022-09-15T04:55:16.437Z,99.99
2022-09-15T04:56:16.421Z,99.99
2022-09-15T04:57:16.446Z,99.99
2022-09-15T04:58:16.415Z,99.99
2022-09-15T04:59:16.395Z,99.99
2022-09-15T05:00:16.388Z,99.99
2022-09-15T05:01:16.432Z,99.99
2022-09-15T05:02:16.462Z,99.99
2022-09-15T05:03:16.347Z,99.99
2022-09-15T05:04:16.318Z,99.99
2022-09-15T05:05:16.311Z,99.99
2022-09-15T05:06:16.301Z,99.99
2022-09-15T05:07:16.278Z,99.99
2022-09-15T05:08:16.281Z,99.99
2022-09-15T05:09:16.270Z,99.99
2022-09-15T05:10:16.246Z,99.99
2022-09-15T05:11:16.227Z,99.99
2022-09-15T05:12:16.229Z,99.99
2022-09-15T05:13:16.199Z,99.99
2022-09-15T05:14:16.188Z,99.99
2022-09-15T05:15:16.187Z,99.99
2022-09-15T05:16:16.195Z,99.99
2022-09-15T05:17:16.156Z,99.99
2022-09-15T05:18:16.136Z,99.99
2022-09-15T05:19:16.145Z,99.99
2022-09-15T05:20:16.109Z,99.99
2022-09-15T05:21:16.107Z,99.99
2022-09-15T05:22:16.083Z,99.99
2022-09-15T05:23:16.089Z,99.99
2022-09-15T05:24:16.055Z,99.99
2022-09-15T05:25:16.058Z,99.99
2022-09-15T05:26:16.061Z,99.99
2022-09-15T05:27:16.059Z,99.99
2022-09-15T05:28:16.003Z,99.99
2022-09-15T05:29:15.985Z,99.99
2022-09-15T05:30:36.652Z,99.99
2022-09-15T05:31:17.015Z,99.99
2022-09-15T05:32:15.968Z,99.99
2022-09-15T05:33:15.970Z,99.99
2022-09-15T05:34:15.925Z,99.99
2022-09-15T05:35:15.905Z,99.99
2022-09-15T05:36:15.906Z,99.99
2022-09-15T05:37:15.899Z,99.99
2022-09-15T05:38:15.875Z,99.99
2022-09-15T05:39:15.896Z,99.99
2022-09-15T05:40:15.877Z,99.99
2022-09-15T05:41:15.845Z,99.99
2022-09-15T05:42:15.824Z,99.99
2022-09-15T05:43:15.817Z,99.99
2022-09-15T05:44:15.793Z,99.99
2022-09-15T05:45:15.811Z,99.99
2022-09-15T05:46:15.828Z,99.99
2022-09-15T05:47:15.754Z,99.99
2022-09-15T05:48:15.753Z,99.99
2022-09-15T05:49:15.724Z,99.99
2022-09-15T05:50:15.744Z,99.99
2022-09-15T05:51:15.732Z,99.99
2022-09-15T05:52:15.707Z,99.99
2022-09-15T05:53:15.685Z,99.99
2022-09-15T05:54:15.672Z,99.99
2022-09-15T05:55:15.665Z,99.99
2022-09-15T05:56:15.677Z,99.99
2022-09-15T05:57:16.396Z,99.99
2022-09-15T05:58:15.618Z,99.99
2022-09-15T05:59:15.606Z,99.99
2022-09-15T06:00:15.596Z,99.99
2022-09-15T06:01:15.586Z,99.99
2022-09-15T06:02:15.645Z,99.99
2022-09-15T06:03:15.624Z,99.99
2022-09-15T06:04:15.542Z,99.99
2022-09-15T06:05:15.525Z,99.99
2022-09-15T06:06:15.525Z,99.99
2022-09-15T06:07:15.491Z,99.99
2022-09-15T06:08:15.482Z,99.99
2022-09-15T06:09:15.491Z,99.99
2022-09-15T06:10:15.452Z,99.99
2022-09-15T06:11:15.441Z,99.99
2022-09-15T06:12:15.455Z,99.99
2022-09-15T06:13:15.432Z,99.99
2022-09-15T06:14:15.401Z,99.99
2022-09-15T06:15:15.413Z,99.99
2022-09-15T06:16:15.505Z,99.99
2022-09-15T06:17:15.374Z,99.99
2022-09-15T06:18:15.364Z,99.99
2022-09-15T06:19:15.363Z,99.99
2022-09-15T06:20:15.346Z,99.99
2022-09-15T06:21:15.337Z,99.99
2022-09-15T06:22:15.329Z,99.99
2022-09-15T06:23:15.288Z,99.99
2022-09-15T06:24:15.284Z,99.99
2022-09-15T06:25:15.250Z,99.99
2022-09-15T06:26:15.250Z,99.99
2022-09-15T06:27:15.264Z,99.99
2022-09-15T06:28:15.232Z,99.99
2022-09-15T06:29:15.224Z,99.99
2022-09-15T06:30:15.210Z,99.95
2022-09-15T06:31:15.209Z,99.85
2022-09-15T06:32:15.374Z,99.85
2022-09-15T06:33:15.179Z,99.85
2022-09-15T06:34:15.146Z,99.60
2022-09-15T06:35:15.148Z,99.39
2022-09-15T06:36:15.143Z,99.29
2022-09-15T06:37:15.119Z,99.19
2022-09-15T06:38:15.128Z,99.29
2022-09-15T06:39:15.109Z,99.29
2022-09-15T06:40:15.144Z,99.39
2022-09-15T06:41:15.061Z,99.29
2022-09-15T06:42:15.055Z,99.08
2022-09-15T06:43:15.030Z,98.99
2022-09-15T06:44:15.030Z,99.08
2022-09-15T06:45:15.020Z,99.19
2022-09-15T06:46:15.046Z,99.29
2022-09-15T06:47:14.982Z,99.35
2022-09-15T06:48:24.522Z,99.44
2022-09-15T06:49:15.958Z,99.35
2022-09-15T06:50:15.143Z,99.14
2022-09-15T06:51:14.960Z,99.04
2022-09-15T06:52:14.918Z,99.14
2022-09-15T06:53:14.921Z,99.24
2022-09-15T06:54:14.884Z,99.24
2022-09-15T06:55:14.883Z,99.35
2022-09-15T06:56:14.880Z,98.94
2022-09-15T06:57:14.879Z,98.74
2022-09-15T06:58:14.835Z,98.63
2022-09-15T06:59:14.842Z,98.63
2022-09-15T07:00:14.808Z,98.63
2022-09-15T07:01:14.799Z,98.84
2022-09-15T07:02:14.943Z,98.84
2022-09-15T07:03:14.972Z,98.94
2022-09-15T07:04:14.771Z,98.94
2022-09-15T07:05:14.736Z,98.94
2022-09-15T07:06:14.738Z,98.43
2022-09-15T07:07:14.731Z,98.43
2022-09-15T07:08:14.750Z,98.74
2022-09-15T07:09:14.724Z,98.84
2022-09-15T07:10:14.700Z,98.74
2022-09-15T07:11:14.688Z,98.59
2022-09-15T07:12:14.670Z,98.69
2022-09-15T07:13:14.635Z,98.79
2022-09-15T07:14:14.642Z,98.59
2022-09-15T07:15:14.644Z,98.28
2022-09-15T07:16:14.697Z,98.23
2022-09-15T07:17:14.575Z,98.03
2022-09-15T07:18:14.593Z,98.23
2022-09-15T07:19:14.558Z,98.39
2022-09-15T07:20:14.554Z,98.59
2022-09-15T07:21:14.564Z,98.79
2022-09-15T07:22:14.524Z,98.79
2022-09-15T07:23:14.517Z,98.79
2022-09-15T07:24:14.513Z,98.69
2022-09-15T07:25:14.484Z,98.69
2022-09-15T07:26:14.490Z,98.85
2022-09-15T07:27:14.473Z,98.85
2022-09-15T07:28:14.458Z,98.54
2022-09-15T07:29:14.428Z,98.28
2022-09-15T07:30:14.414Z,98.18
2022-09-15T07:31:14.445Z,98.08
2022-09-15T07:32:14.417Z,98.14
2022-09-15T07:33:14.406Z,98.24
2022-09-15T07:34:14.366Z,98.34
2022-09-15T07:35:14.366Z,98.34
2022-09-15T07:36:14.365Z,98.54
2022-09-15T07:37:14.322Z,98.65
2022-09-15T07:38:14.337Z,98.65
2022-09-15T07:39:14.322Z,98.74
2022-09-15T07:40:14.342Z,98.65
2022-09-15T07:41:14.288Z,98.65
2022-09-15T07:42:15.514Z,98.54
2022-09-15T07:43:14.249Z,98.54
2022-09-15T07:44:14.241Z,98.44
2022-09-15T07:45:14.232Z,98.24
2022-09-15T07:46:14.258Z,98.44
2022-09-15T07:47:14.205Z,98.44
2022-09-15T07:48:14.201Z,98.34
2022-09-15T07:49:14.179Z,98.34
2022-09-15T07:50:14.183Z,98.14
2022-09-15T07:51:14.161Z,98.03
2022-09-15T07:52:14.142Z,98.03
2022-09-15T07:53:14.123Z,97.83
2022-09-15T07:54:16.308Z,97.63
2022-09-15T07:55:15.106Z,97.53
2022-09-15T07:56:14.095Z,97.53
2022-09-15T07:57:14.100Z,97.94
2022-09-15T07:58:14.070Z,97.94
2022-09-15T07:59:14.044Z,98.03
2022-09-15T08:00:14.031Z,98.03
2022-09-15T08:01:14.063Z,97.94
2022-09-15T08:02:14.084Z,97.83
2022-09-15T08:03:14.011Z,97.73
2022-09-15T08:04:13.989Z,97.73
2022-09-15T08:05:13.967Z,97.73
2022-09-15T08:06:13.954Z,97.94
2022-09-15T08:07:13.955Z,97.94
2022-09-15T08:08:13.952Z,97.94
2022-09-15T08:09:13.943Z,98.09
2022-09-15T08:10:13.903Z,98.19
2022-09-15T08:11:18.276Z,98.19
2022-09-15T08:12:13.898Z,98.19
2022-09-15T08:13:13.875Z,98.29
2022-09-15T08:14:13.890Z,98.19
2022-09-15T08:15:13.846Z,97.85
2022-09-15T08:16:13.971Z,97.64
2022-09-15T08:17:13.812Z,97.54
2022-09-15T08:18:13.799Z,97.44
2022-09-15T08:19:13.794Z,97.44
2022-09-15T08:20:13.799Z,97.29
2022-09-15T08:21:13.775Z,96.89
2022-09-15T08:22:13.761Z,96.58
2022-09-15T08:23:13.754Z,96.18
2022-09-15T08:24:13.776Z,95.87
2022-09-15T08:25:13.706Z,95.98
2022-09-15T08:26:14.586Z,96.08
2022-09-15T08:27:13.692Z,95.78
2022-09-15T08:28:13.692Z,95.57
2022-09-15T08:29:13.662Z,95.78
2022-09-15T08:30:13.663Z,95.87
2022-09-15T08:31:13.744Z,95.98
2022-09-15T08:32:13.652Z,95.47
2022-09-15T08:33:13.611Z,95.47
2022-09-15T08:34:13.610Z,95.47
2022-09-15T08:35:13.577Z,95.67
2022-09-15T08:36:13.593Z,95.37
2022-09-15T08:37:13.566Z,95.27
2022-09-15T08:38:13.568Z,95.27
2022-09-15T08:39:13.556Z,95.37
2022-09-15T08:40:13.571Z,94.56
2022-09-15T08:41:13.511Z,94.46
2022-09-15T08:42:13.518Z,94.66
2022-09-15T08:43:13.490Z,94.86
2022-09-15T08:44:13.500Z,95.17
2022-09-15T08:45:13.458Z,95.43
2022-09-15T08:46:13.548Z,95.63
2022-09-15T08:47:13.438Z,94.92
2022-09-15T08:48:13.421Z,94.82
2022-09-15T08:49:13.418Z,94.92
2022-09-15T08:50:13.425Z,94.82
2022-09-15T08:51:13.376Z,94.42
2022-09-15T08:52:13.371Z,94.51
2022-09-15T08:53:13.346Z,94.31
2022-09-15T08:54:13.359Z,94.11
2022-09-15T08:55:13.326Z,94.11
2022-09-15T08:56:13.339Z,93.40
2022-09-15T08:57:13.309Z,92.60
2022-09-15T08:58:13.311Z,92.60
2022-09-15T08:59:13.274Z,91.99
2022-09-15T09:00:13.306Z,92.49
2022-09-15T09:01:13.338Z,92.80
2022-09-15T09:02:13.227Z,92.49
2022-09-15T09:03:13.277Z,92.69
2022-09-15T09:04:17.545Z,92.80
2022-09-15T09:05:13.228Z,92.45
2022-09-15T09:06:13.217Z,91.99
2022-09-15T09:07:13.175Z,92.14
2022-09-15T09:08:13.156Z,92.45
2022-09-15T09:09:13.157Z,91.85
2022-09-15T09:10:13.134Z,91.54
2022-09-15T09:11:13.131Z,91.34
2022-09-15T09:12:13.960Z,91.24
2022-09-15T09:13:13.093Z,91.44
2022-09-15T09:14:13.095Z,91.14
2022-09-15T09:15:13.087Z,90.94
2022-09-15T09:16:13.132Z,90.83
2022-09-15T09:17:13.059Z,91.09
2022-09-15T09:18:13.071Z,89.92
2022-09-15T09:19:13.033Z,90.03
2022-09-15T09:20:13.020Z,90.08
2022-09-15T09:21:13.014Z,90.39
2022-09-15T09:22:12.989Z,90.08
2022-09-15T09:23:12.964Z,90.19
2022-09-15T09:24:12.997Z,89.58
2022-09-15T09:25:26.555Z,89.64
2022-09-15T09:26:13.933Z,89.64
2022-09-15T09:27:12.915Z,87.15
2022-09-15T09:28:12.906Z,87.15
2022-09-15T09:29:12.908Z,87.72
2022-09-15T09:30:12.906Z,87.92
2022-09-15T09:31:12.931Z,87.92
2022-09-15T09:32:12.842Z,86.71
2022-09-15T09:33:12.844Z,86.41
2022-09-15T09:34:12.822Z,85.90
2022-09-15T09:35:12.827Z,85.70
2022-09-15T09:36:12.811Z,85.30
2022-09-15T09:37:12.790Z,86.00
2022-09-15T09:38:12.784Z,85.50
2022-09-15T09:39:12.762Z,86.41
2022-09-15T09:40:12.813Z,86.61
2022-09-15T09:41:12.744Z,87.01
2022-09-15T09:42:12.765Z,87.12
2022-09-15T09:43:12.708Z,86.51
2022-09-15T09:44:12.701Z,86.30
2022-09-15T09:45:12.682Z,86.41
2022-09-15T09:46:12.717Z,86.21
2022-09-15T09:47:12.653Z,86.00
2022-09-15T09:48:12.687Z,87.12
2022-09-15T09:49:12.648Z,86.10
2022-09-15T09:50:12.623Z,86.30
2022-09-15T09:51:12.620Z,85.56
2022-09-15T09:52:12.610Z,85.80
2022-09-15T09:53:12.598Z,87.01
2022-09-15T09:54:12.596Z,86.91
2022-09-15T09:55:12.591Z,86.71
2022-09-15T09:56:12.560Z,85.70
2022-09-15T09:57:12.534Z,86.21
2022-09-15T09:58:12.510Z,87.12
2022-09-15T09:59:12.538Z,85.70
2022-09-15T10:00:12.519Z,85.90
2022-09-15T10:01:12.542Z,87.01
2022-09-15T10:02:12.494Z,86.81
2022-09-15T10:03:12.472Z,85.80
2022-09-15T10:04:12.452Z,84.89
2022-09-15T10:05:12.534Z,85.30
2022-09-15T10:06:12.439Z,85.70
2022-09-15T10:07:12.412Z,84.99
2022-09-15T10:08:12.389Z,84.09
2022-09-15T10:09:12.380Z,84.49
2022-09-15T10:10:12.370Z,85.19
2022-09-15T10:11:12.362Z,85.19
2022-09-15T10:12:12.350Z,84.69
2022-09-15T10:13:12.345Z,84.09
2022-09-15T10:14:12.324Z,85.16
2022-09-15T10:15:12.312Z,83.48
2022-09-15T10:16:12.390Z,83.74
2022-09-15T10:17:12.291Z,83.95
2022-09-15T10:18:12.280Z,84.35
2022-09-15T10:19:12.245Z,84.85
2022-09-15T10:20:12.333Z,85.05
2022-09-15T10:21:12.264Z,85.46
2022-09-15T10:22:12.208Z,85.82
2022-09-15T10:23:12.218Z,84.91
2022-09-15T10:24:13.567Z,85.82
2022-09-15T10:25:12.199Z,86.02
2022-09-15T10:26:12.160Z,85.72
2022-09-15T10:27:12.159Z,85.02
2022-09-15T10:28:12.138Z,85.56
2022-09-15T10:29:12.117Z,86.02
2022-09-15T10:30:12.235Z,85.25
2022-09-15T10:31:12.107Z,84.05
2022-09-15T10:32:12.149Z,83.64
2022-09-15T10:33:12.069Z,84.15
2022-09-15T10:34:12.072Z,84.55
2022-09-15T10:35:12.058Z,84.85
2022-09-15T10:36:12.047Z,86.27
2022-09-15T10:37:12.015Z,85.86
2022-09-15T10:38:12.025Z,85.66
2022-09-15T10:39:11.987Z,86.27
2022-09-15T10:40:12.067Z,86.57
2022-09-15T10:41:11.964Z,84.95
2022-09-15T10:42:11.984Z,84.81
2022-09-15T10:43:11.954Z,85.31
2022-09-15T10:44:11.923Z,83.80
2022-09-15T10:45:11.920Z,82.73
2022-09-15T10:46:11.964Z,82.73
2022-09-15T10:47:11.906Z,83.44
2022-09-15T10:48:11.899Z,82.93
2022-09-15T10:49:11.862Z,83.04
2022-09-15T10:50:11.848Z,83.00
2022-09-15T10:51:11.835Z,83.50
2022-09-15T10:52:11.846Z,84.21
2022-09-15T10:53:11.815Z,85.11
2022-09-15T10:54:11.816Z,85.11
2022-09-15T10:55:11.803Z,83.70
2022-09-15T10:56:11.793Z,84.01
2022-09-15T10:57:11.755Z,84.61
2022-09-15T10:58:11.749Z,83.91
2022-09-15T10:59:11.748Z,84.11
2022-09-15T11:00:11.809Z,85.11
2022-09-15T11:01:11.789Z,84.21
2022-09-15T11:02:11.758Z,82.59
2022-09-15T11:03:11.790Z,83.20
2022-09-15T11:04:11.667Z,83.06
2022-09-15T11:05:11.715Z,82.19
2022-09-15T11:06:11.667Z,81.99
2022-09-15T11:07:11.625Z,82.70
2022-09-15T11:08:11.615Z,83.56
2022-09-15T11:09:11.617Z,82.05
2022-09-15T11:10:11.608Z,82.65
2022-09-15T11:11:11.598Z,83.16
2022-09-15T11:12:11.596Z,81.28
2022-09-15T11:13:11.588Z,82.19
2022-09-15T11:14:11.544Z,82.35
2022-09-15T11:15:11.544Z,82.09
2022-09-15T11:16:11.601Z,81.28
2022-09-15T11:17:11.520Z,81.68
2022-09-15T11:18:11.502Z,82.59
2022-09-15T11:19:11.498Z,83.40
2022-09-15T11:20:11.475Z,83.80
2022-09-15T11:21:11.465Z,82.79
2022-09-15T11:22:11.434Z,81.68
2022-09-15T11:23:11.436Z,79.67
2022-09-15T11:24:11.452Z,80.18
2022-09-15T11:25:11.424Z,80.78
2022-09-15T11:26:11.415Z,81.93
2022-09-15T11:27:11.374Z,82.70
2022-09-15T11:28:11.363Z,83.91
2022-09-15T11:29:11.363Z,83.20
2022-09-15T11:30:11.351Z,83.20
2022-09-15T11:31:11.423Z,83.40
2022-09-15T11:32:11.332Z,83.20
2022-09-15T11:33:11.319Z,84.31
2022-09-15T11:34:11.281Z,84.81
2022-09-15T11:35:11.286Z,83.50
2022-09-15T11:36:11.282Z,83.50
2022-09-15T11:37:11.260Z,84.31
2022-09-15T11:38:13.035Z,83.00
2022-09-15T11:39:11.222Z,83.30
2022-09-15T11:40:11.251Z,83.91
2022-09-15T11:41:11.200Z,83.60
2022-09-15T11:42:11.205Z,83.70
2022-09-15T11:43:11.171Z,84.57
2022-09-15T11:44:16.128Z,85.08
2022-09-15T11:45:12.178Z,82.15
2022-09-15T11:46:11.188Z,81.85
2022-09-15T11:47:11.171Z,79.73
2022-09-15T11:48:11.118Z,80.74
2022-09-15T11:49:11.104Z,81.04
2022-09-15T11:50:11.112Z,80.84
2022-09-15T11:51:11.091Z,80.24
2022-09-15T11:52:11.064Z,80.64
2022-09-15T11:53:11.049Z,80.20
2022-09-15T11:54:11.053Z,78.89
2022-09-15T11:55:11.009Z,77.98
2022-09-15T11:56:11.004Z,78.28
2022-09-15T11:57:11.032Z,79.05
2022-09-15T11:58:10.990Z,77.08
2022-09-15T11:59:10.959Z,77.75
2022-09-15T12:00:10.966Z,79.16
2022-09-15T12:01:10.941Z,78.25
2022-09-15T12:02:11.009Z,78.65
2022-09-15T12:03:10.932Z,79.25
2022-09-15T12:04:10.957Z,77.48
2022-09-15T12:05:11.157Z,76.77
2022-09-15T12:06:10.912Z,77.08
2022-09-15T12:07:13.700Z,77.78
2022-09-15T12:08:10.839Z,78.19
2022-09-15T12:09:10.862Z,76.57
2022-09-15T12:10:10.822Z,76.47
2022-09-15T12:11:10.820Z,76.87
2022-09-15T12:12:10.832Z,76.67
2022-09-15T12:13:10.780Z,77.48
2022-09-15T12:14:10.823Z,76.47
2022-09-15T12:15:10.773Z,77.48
2022-09-15T12:16:10.802Z,77.08
2022-09-15T12:17:10.718Z,77.38
2022-09-15T12:18:34.530Z,77.58
2022-09-15T12:19:11.708Z,77.78
2022-09-15T12:20:10.694Z,77.58
2022-09-15T12:21:10.680Z,77.78
2022-09-15T12:22:10.664Z,78.15
2022-09-15T12:23:10.659Z,79.16
2022-09-15T12:24:10.648Z,77.81
2022-09-15T12:25:10.720Z,77.20
2022-09-15T12:26:10.610Z,75.19
2022-09-15T12:27:10.595Z,75.09
2022-09-15T12:28:10.599Z,76.20
2022-09-15T12:29:10.566Z,75.76
2022-09-15T12:30:10.595Z,76.67
2022-09-15T12:31:10.631Z,76.26
2022-09-15T12:32:10.541Z,77.37
2022-09-15T12:33:10.518Z,75.39
2022-09-15T12:34:10.507Z,76.10
2022-09-15T12:35:13.596Z,75.39
2022-09-15T12:36:10.498Z,75.39
2022-09-15T12:37:10.470Z,74.38
2022-09-15T12:38:10.458Z,74.73
2022-09-15T12:39:10.447Z,74.32
2022-09-15T12:40:10.517Z,73.72
2022-09-15T12:41:10.420Z,72.64
2022-09-15T12:42:10.416Z,73.55
2022-09-15T12:43:10.406Z,72.74
2022-09-15T12:44:10.380Z,73.35
2022-09-15T12:45:10.366Z,73.45
2022-09-15T12:46:10.395Z,73.85
2022-09-15T12:47:10.337Z,73.95
2022-09-15T12:48:10.347Z,74.96
2022-09-15T12:49:10.320Z,74.76
2022-09-15T12:50:10.302Z,76.17
2022-09-15T12:51:10.302Z,76.07
2022-09-15T12:52:10.276Z,76.27